Time;durP1;ratioP1;P1;durP2;ratioP2;P2;SDS_P1;SDS_P2;PMS_P1;PMS_P2;Temp;Humidity;BMP_temperature;BMP_pressure;BME280_temperature;BME280_humidity;BME280_pressure;Samples;Min_cycle;Max_cycle;Signal;HPM_P1;HPM_P2
2023/08/22 00:00:13;;;;;;;5.30;4.80;;;18.40;99.90;;;;;;5044835;28;20189;-70
2023/08/22 00:02:39;;;;;;;6.87;5.20;;;18.40;99.90;;;;;;5046581;28;20193;-70
2023/08/22 00:05:06;;;;;;;6.20;5.40;;;18.40;99.90;;;;;;5049739;28;20470;-70
2023/08/22 00:07:31;;;;;;;4.80;4.30;;;18.30;99.90;;;;;;5050440;28;20432;-70
2023/08/22 00:09:57;;;;;;;6.30;5.33;;;18.30;99.90;;;;;;5051368;28;20427;-70
2023/08/22 00:12:23;;;;;;;5.77;5.10;;;18.30;99.90;;;;;;5050798;28;20188;-70
2023/08/22 00:14:50;;;;;;;7.20;5.40;;;18.30;99.90;;;;;;5050860;28;20247;-70
2023/08/22 00:17:16;;;;;;;10.30;5.90;;;18.30;99.90;;;;;;5050173;28;20185;-70
2023/08/22 00:19:43;;;;;;;6.20;5.60;;;18.30;99.90;;;;;;5051091;28;20439;-70
2023/08/22 00:22:11;;;;;;;6.03;5.40;;;18.30;99.90;;;;;;5050724;28;20458;-70
2023/08/22 00:24:37;;;;;;;6.23;5.33;;;18.30;99.90;;;;;;5050933;28;20562;-70
2023/08/22 00:27:03;;;;;;;8.00;5.13;;;18.20;99.90;;;;;;5050371;28;20498;-70
2023/08/22 00:29:28;;;;;;;6.60;5.97;;;18.20;99.90;;;;;;5050610;28;20210;-70
2023/08/22 00:31:54;;;;;;;5.70;5.20;;;18.20;99.90;;;;;;5033169;28;20212;-70
2023/08/22 00:34:20;;;;;;;7.17;5.40;;;18.20;99.90;;;;;;5050748;28;20178;-70
2023/08/22 00:36:46;;;;;;;7.20;5.60;;;18.20;99.90;;;;;;5048804;28;20555;-70
2023/08/22 00:39:12;;;;;;;6.50;5.20;;;18.20;99.90;;;;;;5051089;28;20212;-70
2023/08/22 00:41:38;;;;;;;8.20;5.67;;;18.20;99.90;;;;;;5050708;28;20478;-70
2023/08/22 00:44:04;;;;;;;6.90;6.17;;;18.30;99.90;;;;;;5051202;28;20455;-70
2023/08/22 00:46:30;;;;;;;8.77;6.30;;;18.30;99.90;;;;;;5049842;28;20184;-70
2023/08/22 00:48:56;;;;;;;7.33;5.63;;;18.30;99.90;;;;;;5051198;28;20213;-70
2023/08/22 00:51:22;;;;;;;8.03;6.03;;;18.20;99.90;;;;;;5050814;28;20470;-70
2023/08/22 00:53:48;;;;;;;7.60;6.27;;;18.20;99.90;;;;;;5051001;28;20412;-70
2023/08/22 00:56:15;;;;;;;7.30;6.00;;;18.20;99.90;;;;;;5050602;28;20415;-70
2023/08/22 00:58:41;;;;;;;9.10;5.77;;;18.20;99.90;;;;;;5050558;28;20436;-70
2023/08/22 01:01:07;;;;;;;9.67;5.83;;;18.30;99.90;;;;;;5061637;28;20423;-70
2023/08/22 01:03:34;;;;;;;7.63;5.47;;;18.30;99.90;;;;;;5061087;28;20423;-70
2023/08/22 01:06:29;;;;;;;6.07;5.47;;;18.30;99.90;;;;;;5061021;28;20514;-70
2023/08/22 01:09:14;;;;;;;6.90;5.10;;;18.30;99.90;;;;;;5011700;28;20475;-70
2023/08/22 01:11:46;;;;;;;7.07;4.67;;;18.30;99.90;;;;;;5066068;28;20477;-70
2023/08/22 01:14:19;;;;;;;6.07;5.33;;;18.30;99.90;;;;;;5049271;28;20420;-70
2023/08/22 01:16:46;;;;;;;6.60;5.40;;;18.30;99.90;;;;;;5049735;28;20420;-70
2023/08/22 01:19:13;;;;;;;7.00;5.77;;;18.20;99.90;;;;;;5050440;28;20820;-70
2023/08/22 01:21:52;;;;;;;6.90;5.80;;;18.20;99.90;;;;;;5050431;28;20950;-70
2023/08/22 01:24:18;;;;;;;7.00;5.93;;;18.10;99.90;;;;;;5049914;28;20511;-70
2023/08/22 01:26:46;;;;;;;7.03;5.90;;;18.00;99.90;;;;;;5048891;28;20523;-70
2023/08/22 01:29:16;;;;;;;6.37;5.63;;;18.00;99.90;;;;;;5049993;28;20706;-70
2023/08/22 01:32:13;;;;;;;6.60;5.87;;;17.90;99.90;;;;;;5049491;28;20432;-70
2023/08/22 01:34:41;;;;;;;5.10;4.60;;;17.90;99.90;;;;;;5048263;28;20436;-70
2023/08/22 01:37:10;;;;;;;7.30;5.03;;;18.00;99.90;;;;;;5047700;28;20998;-70
2023/08/22 01:39:39;;;;;;;6.50;5.33;;;18.00;99.90;;;;;;5049758;28;20448;-70
2023/08/22 01:42:05;;;;;;;6.23;5.37;;;18.00;99.90;;;;;;5049762;28;20837;-70
2023/08/22 01:44:31;;;;;;;7.90;5.97;;;18.00;99.90;;;;;;5049423;28;20470;-70
2023/08/22 01:46:57;;;;;;;8.77;5.30;;;17.90;99.90;;;;;;5048721;28;20412;-70
2023/08/22 01:49:22;;;;;;;11.33;6.10;;;18.00;99.90;;;;;;5048080;28;20220;-70
2023/08/22 01:51:48;;;;;;;6.37;5.77;;;18.00;99.90;;;;;;5049561;28;20178;-70
2023/08/22 01:54:14;;;;;;;7.60;6.00;;;18.00;99.90;;;;;;5048539;28;20235;-70
2023/08/22 01:56:40;;;;;;;10.33;6.10;;;18.00;99.90;;;;;;5046771;28;20645;-70
2023/08/22 01:59:05;;;;;;;6.87;5.63;;;18.00;99.90;;;;;;5048899;28;20463;-70
2023/08/22 02:01:31;;;;;;;6.53;5.47;;;18.00;99.90;;;;;;5049127;28;20177;-70
2023/08/22 02:04:03;;;;;;;7.97;6.90;;;18.00;99.90;;;;;;5049486;28;20177;-70
2023/08/22 02:06:29;;;;;;;7.67;6.10;;;17.90;99.90;;;;;;5047984;28;20181;-70
2023/08/22 02:08:55;;;;;;;6.73;5.40;;;17.90;99.90;;;;;;5047380;28;20474;-70
2023/08/22 02:11:21;;;;;;;6.83;5.50;;;17.90;99.90;;;;;;5047949;28;20413;-70
2023/08/22 02:13:46;;;;;;;6.57;5.20;;;17.90;99.90;;;;;;5047698;28;20182;-70
2023/08/22 02:16:12;;;;;;;6.47;5.70;;;17.90;99.90;;;;;;5048688;28;20704;-70
2023/08/22 02:18:38;;;;;;;7.10;5.33;;;17.90;99.90;;;;;;5048013;28;20530;-70
2023/08/22 02:21:03;;;;;;;5.93;5.33;;;17.90;99.90;;;;;;5048944;28;20177;-70
2023/08/22 02:23:31;;;;;;;6.73;6.03;;;17.90;99.90;;;;;;5047377;28;20277;-70
2023/08/22 02:25:57;;;;;;;7.43;6.13;;;17.90;99.90;;;;;;5046749;28;20693;-70
2023/08/22 02:28:22;;;;;;;7.60;5.80;;;17.90;99.90;;;;;;5048063;28;20459;-70
2023/08/22 02:30:53;;;;;;;6.20;5.33;;;17.90;99.90;;;;;;5048488;28;20253;-70
2023/08/22 02:33:18;;;;;;;9.27;6.80;;;17.90;99.90;;;;;;5048745;28;20179;-70
2023/08/22 02:35:44;;;;;;;6.10;5.50;;;17.90;99.90;;;;;;5048132;28;20492;-70
2023/08/22 02:38:10;;;;;;;6.80;6.17;;;17.90;99.90;;;;;;5048084;28;20198;-70
2023/08/22 02:40:35;;;;;;;8.83;5.47;;;17.90;99.90;;;;;;5048675;28;20181;-70
2023/08/22 02:43:02;;;;;;;6.20;5.60;;;17.90;99.90;;;;;;5048516;28;20256;-70
2023/08/22 02:45:27;;;;;;;7.73;5.50;;;17.90;99.90;;;;;;5048344;28;20173;-70
2023/08/22 02:47:53;;;;;;;5.63;4.90;;;17.80;99.90;;;;;;5045929;28;20456;-70
2023/08/22 02:50:19;;;;;;;7.43;5.93;;;17.80;99.90;;;;;;5048444;28;20713;-70
2023/08/22 02:52:45;;;;;;;5.80;5.30;;;17.80;99.90;;;;;;5048266;28;20181;-70
2023/08/22 02:55:10;;;;;;;6.10;5.30;;;17.80;99.90;;;;;;5048142;28;20448;-70
2023/08/22 02:57:36;;;;;;;7.20;5.70;;;17.80;99.90;;;;;;5047675;28;20690;-70
2023/08/22 03:00:02;;;;;;;6.20;5.60;;;17.80;99.90;;;;;;5047654;28;20609;-70
2023/08/22 03:02:27;;;;;;;6.63;5.10;;;17.80;99.90;;;;;;5048310;28;20178;-70
2023/08/22 03:04:53;;;;;;;8.60;6.00;;;17.80;99.90;;;;;;5046362;28;20443;-70
2023/08/22 03:07:19;;;;;;;7.27;5.63;;;17.70;99.90;;;;;;5047124;28;20355;-70
2023/08/22 03:09:45;;;;;;;8.33;5.97;;;17.70;99.90;;;;;;5048301;28;20308;-70
2023/08/22 03:12:11;;;;;;;6.67;5.97;;;17.70;99.90;;;;;;5047737;28;20503;-70
2023/08/22 03:14:36;;;;;;;6.20;5.57;;;17.70;99.90;;;;;;5047901;28;20185;-70
2023/08/22 03:17:02;;;;;;;10.17;6.40;;;17.60;99.90;;;;;;5046903;28;20843;-71
2023/08/22 03:19:27;;;;;;;6.50;5.33;;;17.60;99.90;;;;;;5047617;28;20225;-71
2023/08/22 03:21:53;;;;;;;6.93;6.17;;;17.60;99.90;;;;;;5047759;28;20554;-71
2023/08/22 03:24:19;;;;;;;6.23;5.63;;;17.50;99.90;;;;;;5046350;28;20180;-71
2023/08/22 03:26:44;;;;;;;10.00;5.73;;;17.50;99.90;;;;;;5047176;28;20558;-71
2023/08/22 03:29:10;;;;;;;9.63;6.40;;;17.50;99.90;;;;;;5045914;28;20216;-70
2023/08/22 03:31:36;;;;;;;6.33;5.73;;;17.50;99.90;;;;;;5047620;28;20195;-71
2023/08/22 03:34:01;;;;;;;6.37;5.80;;;17.50;99.90;;;;;;5047741;28;20180;-71
2023/08/22 03:36:27;;;;;;;6.97;5.77;;;17.50;99.90;;;;;;5044838;28;20251;-71
2023/08/22 03:38:53;;;;;;;6.90;5.97;;;17.50;99.90;;;;;;5062181;28;20200;-71
2023/08/22 03:41:19;;;;;;;8.43;6.30;;;17.40;99.90;;;;;;5047610;28;20261;-71
2023/08/22 03:43:44;;;;;;;7.37;6.50;;;17.40;99.90;;;;;;5047541;28;20431;-71
2023/08/22 03:46:10;;;;;;;7.27;6.50;;;17.40;99.90;;;;;;5047331;28;20681;-71
2023/08/22 03:48:36;;;;;;;6.57;5.87;;;17.50;99.90;;;;;;5046491;28;20213;-71
2023/08/22 03:51:06;;;;;;;6.40;5.23;;;17.40;99.90;;;;;;5047468;28;20177;-71
2023/08/22 03:53:34;;;;;;;7.83;6.13;;;17.40;99.90;;;;;;5047317;28;20227;-71
2023/08/22 03:55:59;;;;;;;5.90;5.30;;;17.30;99.90;;;;;;5047370;28;20401;-71
2023/08/22 03:58:25;;;;;;;7.97;5.60;;;17.30;99.90;;;;;;5045509;28;20490;-71
2023/08/22 04:00:54;;;;;;;6.73;5.63;;;17.30;99.90;;;;;;5046656;28;20182;-71
2023/08/22 04:03:20;;;;;;;5.87;5.33;;;17.40;99.90;;;;;;5047676;28;20177;-71
2023/08/22 04:05:46;;;;;;;7.90;6.30;;;17.30;99.90;;;;;;5047138;28;20847;-71
2023/08/22 04:08:11;;;;;;;8.83;5.30;;;17.20;99.90;;;;;;5046942;28;20706;-71
2023/08/22 04:10:37;;;;;;;7.40;5.60;;;17.20;99.90;;;;;;5047565;28;20915;-70
2023/08/22 04:13:03;;;;;;;8.30;5.20;;;17.20;99.90;;;;;;5046442;28;20708;-71
2023/08/22 04:15:29;;;;;;;6.70;5.20;;;17.30;99.90;;;;;;5046765;28;20247;-71
2023/08/22 04:17:54;;;;;;;6.57;5.93;;;17.40;99.90;;;;;;5046266;28;20209;-71
2023/08/22 04:20:20;;;;;;;6.37;5.50;;;17.40;99.90;;;;;;5062682;28;20219;-71
2023/08/22 04:22:46;;;;;;;5.73;5.23;;;17.50;99.90;;;;;;5056105;28;20201;-71
2023/08/22 04:25:11;;;;;;;6.37;5.73;;;17.40;99.90;;;;;;5037178;28;20569;-71
2023/08/22 04:27:38;;;;;;;7.00;4.90;;;17.40;99.90;;;;;;5048663;28;20208;-71
2023/08/22 04:30:04;;;;;;;6.17;5.57;;;17.30;99.90;;;;;;5047243;28;20208;-71
2023/08/22 04:32:30;;;;;;;6.00;5.40;;;17.30;99.90;;;;;;5043062;28;20441;-71
2023/08/22 04:34:56;;;;;;;6.87;5.10;;;17.20;99.90;;;;;;5045529;28;20423;-71
2023/08/22 04:37:23;;;;;;;7.90;5.87;;;17.20;99.90;;;;;;5044085;28;20417;-71
2023/08/22 04:39:49;;;;;;;6.00;5.50;;;17.20;99.90;;;;;;5046520;28;20185;-71
2023/08/22 04:42:14;;;;;;;5.90;4.90;;;17.20;99.90;;;;;;5045624;28;20780;-71
2023/08/22 04:44:40;;;;;;;8.27;6.40;;;17.10;99.90;;;;;;5046913;28;20193;-71
2023/08/22 04:47:06;;;;;;;7.77;5.80;;;17.10;99.90;;;;;;5043061;28;20553;-71
2023/08/22 04:49:31;;;;;;;6.27;5.67;;;17.10;99.90;;;;;;5042824;28;20213;-71
2023/08/22 04:51:57;;;;;;;7.47;5.40;;;17.10;99.90;;;;;;5044645;28;20269;-71
2023/08/22 04:54:23;;;;;;;7.80;6.40;;;17.10;99.90;;;;;;5048548;28;20193;-71
2023/08/22 04:56:48;;;;;;;7.80;6.10;;;17.10;99.90;;;;;;5043699;28;20262;-71
2023/08/22 04:59:14;;;;;;;6.13;5.37;;;17.10;99.90;;;;;;5046826;28;20304;-71
2023/08/22 05:01:40;;;;;;;7.00;6.23;;;17.10;99.90;;;;;;5048900;28;20204;-71
2023/08/22 05:04:05;;;;;;;6.00;5.40;;;17.20;99.90;;;;;;5050323;28;20170;-71
2023/08/22 05:06:31;;;;;;;6.00;5.33;;;17.20;99.90;;;;;;5049463;28;20268;-71
2023/08/22 05:08:57;;;;;;;6.87;5.80;;;17.20;99.90;;;;;;5050403;28;20206;-72
2023/08/22 05:11:22;;;;;;;6.27;5.67;;;17.20;99.90;;;;;;5050328;28;20173;-71
2023/08/22 05:13:48;;;;;;;6.60;6.00;;;17.20;99.90;;;;;;5049296;28;20198;-72
2023/08/22 05:16:14;;;;;;;6.23;5.63;;;17.20;99.90;;;;;;5046839;28;20182;-71
2023/08/22 05:18:39;;;;;;;8.00;5.97;;;17.30;99.90;;;;;;5039048;28;20202;-72
2023/08/22 05:21:05;;;;;;;6.47;5.87;;;17.20;99.90;;;;;;5040691;28;20178;-71
2023/08/22 05:23:31;;;;;;;9.37;6.30;;;17.20;99.90;;;;;;5037830;28;20262;-71
2023/08/22 05:25:57;;;;;;;8.07;6.40;;;17.20;99.90;;;;;;5030065;28;20483;-71
2023/08/22 05:28:23;;;;;;;7.57;6.33;;;17.30;99.90;;;;;;5036683;28;20213;-71
2023/08/22 05:30:48;;;;;;;6.93;6.23;;;17.30;99.90;;;;;;5046558;28;20257;-71
2023/08/22 05:33:14;;;;;;;6.17;5.57;;;17.30;99.90;;;;;;5030104;28;20251;-71
2023/08/22 05:35:40;;;;;;;7.63;5.90;;;17.30;99.90;;;;;;5036364;28;20227;-71
2023/08/22 05:38:05;;;;;;;6.60;5.67;;;17.30;99.90;;;;;;5049115;28;20193;-71
2023/08/22 05:40:31;;;;;;;8.30;6.20;;;17.30;99.90;;;;;;5049735;28;20182;-71
2023/08/22 05:42:57;;;;;;;6.27;5.30;;;17.40;99.90;;;;;;5048633;28;20209;-71
2023/08/22 05:45:22;;;;;;;7.47;6.13;;;17.50;99.90;;;;;;5048921;28;20812;-71
2023/08/22 05:47:48;;;;;;;6.30;5.53;;;17.50;99.90;;;;;;5048675;28;20209;-71
2023/08/22 05:50:14;;;;;;;6.33;5.23;;;17.70;99.90;;;;;;5048312;28;20539;-71
2023/08/22 05:52:40;;;;;;;6.63;5.30;;;17.90;99.90;;;;;;5031740;28;20458;-71
2023/08/22 05:55:06;;;;;;;6.30;5.43;;;18.00;99.90;;;;;;5048505;28;20260;-71
2023/08/22 05:57:32;;;;;;;5.90;5.30;;;18.10;99.90;;;;;;5063626;28;20190;-71
2023/08/22 05:59:59;;;;;;;6.13;5.53;;;18.30;99.90;;;;;;5049088;28;20427;-71
2023/08/22 06:02:25;;;;;;;6.90;5.70;;;18.50;99.90;;;;;;5036103;28;20192;-71
2023/08/22 06:04:51;;;;;;;6.77;5.67;;;18.80;99.90;;;;;;5038906;28;20413;-71
2023/08/22 06:07:17;;;;;;;5.80;5.27;;;19.00;99.90;;;;;;5034261;28;20421;-71
2023/08/22 06:09:42;;;;;;;10.43;5.83;;;19.30;99.90;;;;;;5029367;28;20289;-70
2023/08/22 06:12:08;;;;;;;7.00;6.00;;;19.50;99.90;;;;;;5029503;28;20599;-70
2023/08/22 06:14:34;;;;;;;7.90;6.27;;;19.80;99.90;;;;;;5029413;28;20174;-71
2023/08/22 06:17:00;;;;;;;7.13;5.10;;;19.90;99.90;;;;;;5028213;28;20964;-71
2023/08/22 06:19:26;;;;;;;9.07;5.97;;;20.00;99.90;;;;;;5027418;28;20194;-70
2023/08/22 06:21:53;;;;;;;7.97;5.97;;;20.20;99.90;;;;;;5029520;28;20432;-70
2023/08/22 06:24:19;;;;;;;5.43;4.80;;;20.30;99.90;;;;;;5034401;28;20270;-70
2023/08/22 06:26:44;;;;;;;7.23;5.57;;;20.40;99.90;;;;;;5048518;28;20821;-71
2023/08/22 06:29:10;;;;;;;8.10;6.07;;;20.40;99.90;;;;;;5048729;28;20212;-70
2023/08/22 06:31:36;;;;;;;9.90;5.50;;;20.50;99.90;;;;;;5048540;28;20304;-70
2023/08/22 06:34:02;;;;;;;7.73;5.57;;;20.60;99.90;;;;;;5049000;28;20174;-70
2023/08/22 06:36:28;;;;;;;8.30;5.50;;;20.80;99.90;;;;;;5047580;28;20184;-70
2023/08/22 06:38:53;;;;;;;7.73;5.80;;;21.00;99.90;;;;;;5043626;28;20932;-70
2023/08/22 06:41:20;;;;;;;7.77;6.30;;;21.20;99.90;;;;;;5038638;28;20195;-70
2023/08/22 06:43:46;;;;;;;10.70;7.00;;;21.40;99.90;;;;;;5038842;28;20181;-71
2023/08/22 06:46:12;;;;;;;13.20;7.20;;;21.60;99.90;;;;;;5028245;28;21124;-70
2023/08/22 06:48:37;;;;;;;8.53;6.70;;;21.80;99.90;;;;;;5027804;28;20465;-71
2023/08/22 06:51:03;;;;;;;7.77;6.30;;;21.90;99.90;;;;;;5052956;28;20185;-71
2023/08/22 06:53:29;;;;;;;10.77;6.50;;;21.90;99.90;;;;;;5050071;28;20704;-70
2023/08/22 06:55:55;;;;;;;15.40;6.57;;;21.90;99.90;;;;;;5048082;28;20741;-70
2023/08/22 06:58:21;;;;;;;7.77;5.67;;;21.90;99.90;;;;;;5047533;28;20197;-70
2023/08/22 07:00:48;;;;;;;8.47;6.63;;;22.00;99.90;;;;;;5047176;28;20424;-71
2023/08/22 07:03:13;;;;;;;13.53;6.60;;;22.10;99.90;;;;;;5048242;28;20260;-71
2023/08/22 07:05:39;;;;;;;7.37;6.67;;;22.10;99.90;;;;;;5043424;28;20558;-71
2023/08/22 07:08:05;;;;;;;11.43;7.07;;;22.20;99.90;;;;;;5044955;28;20213;-70
2023/08/22 07:10:31;;;;;;;8.87;5.53;;;22.20;99.90;;;;;;5046345;28;20417;-70
2023/08/22 07:12:57;;;;;;;6.57;5.90;;;22.20;99.90;;;;;;5045207;28;20416;-71
2023/08/22 07:15:23;;;;;;;9.07;6.73;;;22.10;99.90;;;;;;5045226;28;20408;-71
2023/08/22 07:17:48;;;;;;;14.50;6.50;;;22.10;99.90;;;;;;5045983;28;20181;-70
2023/08/22 07:20:14;;;;;;;7.63;6.60;;;22.00;99.90;;;;;;5047404;28;20635;-71
2023/08/22 07:22:40;;;;;;;7.17;6.27;;;21.90;99.90;;;;;;5047676;28;20174;-71
2023/08/22 07:25:06;;;;;;;6.97;5.83;;;21.90;99.90;;;;;;5047637;28;20239;-70
2023/08/22 07:27:31;;;;;;;9.23;6.60;;;21.90;99.90;;;;;;5047593;28;20193;-71
2023/08/22 07:29:57;;;;;;;8.63;5.53;;;21.80;99.90;;;;;;5047806;28;20534;-70
2023/08/22 07:32:23;;;;;;;9.10;5.97;;;21.80;99.90;;;;;;5048067;28;20193;-71
2023/08/22 07:34:49;;;;;;;12.87;6.57;;;21.80;99.90;;;;;;5047109;28;20253;-70
2023/08/22 07:37:16;;;;;;;33.77;9.90;;;21.90;99.90;;;;;;5048541;28;20693;-70
2023/08/22 07:39:42;;;;;;;13.70;6.40;;;21.80;99.90;;;;;;5063826;28;20415;-70
2023/08/22 07:42:08;;;;;;;10.03;6.80;;;21.90;99.90;;;;;;5056720;28;20419;-70
2023/08/22 07:44:34;;;;;;;9.77;7.27;;;21.90;99.90;;;;;;5055163;28;20401;-71
2023/08/22 07:47:00;;;;;;;10.10;5.97;;;21.90;99.90;;;;;;5049285;28;20412;-71
2023/08/22 07:49:26;;;;;;;13.00;6.40;;;22.00;99.90;;;;;;5046860;28;20452;-71
2023/08/22 07:51:52;;;;;;;7.83;5.80;;;22.00;99.90;;;;;;5047485;28;20755;-71
2023/08/22 07:54:18;;;;;;;10.03;6.77;;;22.00;99.90;;;;;;5048026;28;20648;-71
2023/08/22 07:56:45;;;;;;;11.77;6.63;;;22.10;99.90;;;;;;5046900;28;20269;-71
2023/08/22 07:59:13;;;;;;;18.00;6.30;;;22.10;99.90;;;;;;5047026;28;20284;-71
2023/08/22 08:01:41;;;;;;;27.57;7.53;;;22.20;99.90;;;;;;5047526;28;20916;-71
2023/08/22 08:04:08;;;;;;;24.57;8.87;;;22.20;99.90;;;;;;5047605;28;20444;-70
2023/08/22 08:06:34;;;;;;;13.37;5.60;;;22.30;99.90;;;;;;5046546;28;20419;-71
2023/08/22 08:09:01;;;;;;;8.60;5.23;;;22.30;99.90;;;;;;5047391;28;20460;-71
2023/08/22 08:11:29;;;;;;;7.73;5.30;;;22.40;99.90;;;;;;5047523;28;20905;-71
2023/08/22 08:13:56;;;;;;;9.50;6.43;;;22.50;99.90;;;;;;5047314;28;20730;-71
2023/08/22 08:16:22;;;;;;;8.13;5.70;;;22.60;99.90;;;;;;5046554;28;20409;-71
2023/08/22 08:18:48;;;;;;;5.90;5.03;;;22.60;99.90;;;;;;5045891;28;20492;-71
2023/08/22 08:21:14;;;;;;;6.83;4.40;;;22.70;99.90;;;;;;5047028;28;20412;-71
2023/08/22 08:23:40;;;;;;;7.80;5.53;;;22.80;99.90;;;;;;5047395;28;20419;-71
2023/08/22 08:26:07;;;;;;;11.10;5.17;;;22.80;99.90;;;;;;5050146;28;20204;-71
2023/08/22 08:28:33;;;;;;;6.67;4.57;;;22.90;99.90;;;;;;5050392;28;20216;-71
2023/08/22 08:30:59;;;;;;;10.00;5.37;;;23.00;99.90;;;;;;5049440;28;20845;-71
2023/08/22 08:33:24;;;;;;;10.43;4.23;;;23.00;99.90;;;;;;5051213;28;20408;-71
2023/08/22 08:35:50;;;;;;;8.67;4.90;;;23.10;99.90;;;;;;5050709;28;20181;-71
2023/08/22 08:38:16;;;;;;;7.33;5.27;;;23.30;99.90;;;;;;5050079;28;20193;-71
2023/08/22 08:40:42;;;;;;;11.80;5.10;;;23.30;99.90;;;;;;5051099;28;20659;-71
2023/08/22 08:43:08;;;;;;;7.20;5.33;;;23.40;99.90;;;;;;5050543;28;20660;-71
2023/08/22 08:45:35;;;;;;;7.03;5.23;;;23.40;99.90;;;;;;5050732;28;20462;-71
2023/08/22 08:48:02;;;;;;;5.83;4.40;;;23.50;99.90;;;;;;5050075;28;20204;-71
2023/08/22 08:50:31;;;;;;;6.87;4.73;;;23.50;99.90;;;;;;5050560;28;20503;-70
2023/08/22 08:52:56;;;;;;;5.67;4.23;;;23.60;99.90;;;;;;5050640;28;21008;-71
2023/08/22 08:55:22;;;;;;;6.87;5.43;;;23.60;99.90;;;;;;5050333;28;20499;-70
2023/08/22 08:57:49;;;;;;;8.63;6.30;;;23.60;99.90;;;;;;5050110;28;20225;-70
2023/08/22 09:00:16;;;;;;;5.43;4.67;;;23.60;99.90;;;;;;5048025;28;20531;-71
2023/08/22 09:02:43;;;;;;;5.47;4.97;;;23.60;99.90;;;;;;5050477;28;20414;-70
2023/08/22 09:05:11;;;;;;;8.37;5.70;;;23.60;99.90;;;;;;5049036;28;20409;-70
2023/08/22 09:07:37;;;;;;;7.27;4.83;;;23.70;99.90;;;;;;5049732;28;20439;-70
2023/08/22 09:10:04;;;;;;;9.00;5.60;;;23.70;99.90;;;;;;5050618;28;20981;-71
2023/08/22 09:12:36;;;;;;;7.70;5.40;;;23.70;99.90;;;;;;5050050;28;20408;-70
2023/08/22 09:15:06;;;;;;;4.90;4.40;;;23.80;99.90;;;;;;5050192;28;20400;-71
2023/08/22 09:17:32;;;;;;;5.50;4.13;;;23.80;99.90;;;;;;5048310;28;20428;-70
2023/08/22 09:19:58;;;;;;;6.37;4.50;;;23.90;99.90;;;;;;5050437;28;20416;-70
2023/08/22 09:22:30;;;;;;;7.50;4.50;;;24.00;99.90;;;;;;5048426;28;20481;-71
2023/08/22 09:24:56;;;;;;;6.00;3.73;;;24.00;99.90;;;;;;5049943;28;20256;-71
2023/08/22 09:27:26;;;;;;;6.83;3.67;;;24.10;99.90;;;;;;5047773;28;20555;-71
2023/08/22 09:29:52;;;;;;;7.13;4.43;;;24.20;99.90;;;;;;5049838;28;20456;-71
2023/08/22 09:32:21;;;;;;;4.70;3.90;;;24.30;99.90;;;;;;5049542;28;20436;-71
2023/08/22 09:34:55;;;;;;;7.40;4.60;;;24.30;99.90;;;;;;5065139;28;20910;-71
2023/08/22 09:37:34;;;;;;;9.30;6.10;;;24.30;99.90;;;;;;5010999;28;20997;-71
2023/08/22 09:40:00;;;;;;;5.80;4.20;;;24.30;99.90;;;;;;5029863;28;20459;-71
2023/08/22 09:42:29;;;;;;;9.50;4.87;;;24.40;99.90;;;;;;5029867;28;20413;-71
2023/08/22 09:44:58;;;;;;;6.40;4.27;;;24.50;99.90;;;;;;5027847;28;20422;-71
2023/08/22 09:47:40;;;;;;;6.80;5.17;;;24.70;99.90;;;;;;5027801;28;20433;-71
2023/08/22 09:50:06;;;;;;;7.30;4.80;;;24.80;99.90;;;;;;5029856;28;20452;-71
2023/08/22 09:52:38;;;;;;;8.00;4.53;;;25.10;99.90;;;;;;5028410;28;20416;-71
2023/08/22 09:55:06;;;;;;;12.40;5.13;;;25.20;99.90;;;;;;5030018;28;20877;-71
2023/08/22 09:57:33;;;;;;;7.00;4.83;;;25.30;99.90;;;;;;5028975;28;20429;-71
2023/08/22 10:00:00;;;;;;;7.30;4.90;;;25.30;99.90;;;;;;5027621;28;20989;-71
2023/08/22 10:02:28;;;;;;;6.70;5.93;;;25.30;99.90;;;;;;5029456;28;20459;-71
2023/08/22 10:04:54;;;;;;;5.83;4.27;;;25.20;99.90;;;;;;5029114;28;20413;-71
2023/08/22 10:07:21;;;;;;;9.40;5.87;;;25.20;99.90;;;;;;5028674;28;20496;-71
2023/08/22 10:09:46;;;;;;;8.43;6.73;;;25.20;99.90;;;;;;5029232;28;21111;-71
2023/08/22 10:12:16;;;;;;;6.43;4.97;;;25.30;99.90;;;;;;5029284;28;20484;-70
2023/08/22 10:14:46;;;;;;;5.13;4.33;;;25.40;99.90;;;;;;5029459;28;20793;-71
2023/08/22 10:17:16;;;;;;;9.63;5.10;;;25.60;99.90;;;;;;5028340;28;20463;-70
2023/08/22 10:19:43;;;;;;;6.67;5.03;;;25.80;99.90;;;;;;5029745;28;20425;-71
2023/08/22 10:22:13;;;;;;;4.57;4.20;;;25.80;99.90;;;;;;5029051;28;20767;-71
2023/08/22 10:24:40;;;;;;;6.03;4.13;;;25.80;99.90;;;;;;5028956;28;20969;-71
2023/08/22 10:27:09;;;;;;;4.37;3.87;;;25.70;99.90;;;;;;5026947;28;20417;-71
2023/08/22 10:29:36;;;;;;;6.73;3.97;;;25.70;99.90;;;;;;5044784;28;20455;-71
2023/08/22 10:32:01;;;;;;;3.77;3.37;;;25.70;99.90;;;;;;5048966;28;20424;-71
2023/08/22 10:34:27;;;;;;;7.17;4.43;;;25.60;99.90;;;;;;5048001;28;20474;-71
2023/08/22 10:36:57;;;;;;;5.63;3.53;;;25.60;99.90;;;;;;5047779;28;20265;-71
2023/08/22 10:39:35;;;;;;;7.03;3.50;;;25.50;99.90;;;;;;5049025;28;20204;-71
2023/08/22 10:42:01;;;;;;;4.80;4.00;;;25.40;99.90;;;;;;5048840;28;20409;-71
2023/08/22 10:44:30;;;;;;;6.57;4.07;;;25.40;99.90;;;;;;5048810;28;20483;-71
2023/08/22 10:47:02;;;;;;;8.30;4.20;;;25.40;99.90;;;;;;5047746;28;20174;-71
2023/08/22 10:49:30;;;;;;;7.50;4.90;;;25.40;99.90;;;;;;5048449;28;20474;-71
2023/08/22 10:52:03;;;;;;;8.97;4.43;;;25.30;99.90;;;;;;5048789;28;20504;-71
2023/08/22 10:54:30;;;;;;;6.73;4.53;;;25.20;99.90;;;;;;5048422;28;20411;-71
2023/08/22 10:57:15;;;;;;;6.07;4.20;;;25.20;99.90;;;;;;5048100;28;20837;-71
2023/08/22 10:59:58;;;;;;;6.50;4.80;;;25.30;99.90;;;;;;5048958;28;20433;-71
2023/08/22 11:02:27;;;;;;;6.87;4.57;;;25.50;99.90;;;;;;5065988;28;20420;-72
2023/08/22 11:04:56;;;;;;;8.90;4.17;;;25.60;99.90;;;;;;5058529;28;20909;-71
2023/08/22 11:07:24;;;;;;;7.37;4.87;;;25.80;99.90;;;;;;5057585;28;20404;-72
2023/08/22 11:09:50;;;;;;;10.40;5.20;;;25.90;99.90;;;;;;5050325;28;20559;-71
2023/08/22 11:12:20;;;;;;;6.13;3.83;;;25.80;99.90;;;;;;5048709;28;20483;-71
2023/08/22 11:14:46;;;;;;;5.00;3.73;;;25.70;99.90;;;;;;5048145;28;20954;-71
2023/08/22 11:17:14;;;;;;;5.87;4.30;;;25.60;99.90;;;;;;5047464;28;20404;-71
2023/08/22 11:19:39;;;;;;;7.80;3.87;;;25.40;99.90;;;;;;5048276;28;20404;-71
2023/08/22 11:22:06;;;;;;;6.00;4.20;;;25.30;99.90;;;;;;5047790;28;21046;-71
2023/08/22 11:24:32;;;;;;;7.00;3.83;;;25.20;99.90;;;;;;5047705;28;20257;-71
2023/08/22 11:27:02;;;;;;;7.30;4.10;;;25.20;99.90;;;;;;5046970;28;20818;-71
2023/08/22 11:29:28;;;;;;;6.30;3.90;;;25.20;99.90;;;;;;5047508;28;20205;-71
2023/08/22 11:31:53;;;;;;;4.73;3.27;;;25.30;99.90;;;;;;5048042;28;20954;-71
2023/08/22 11:34:21;;;;;;;5.50;4.50;;;25.40;99.90;;;;;;5047364;28;20173;-71
2023/08/22 11:36:47;;;;;;;8.60;4.03;;;25.50;99.90;;;;;;5046925;28;20201;-71
2023/08/22 11:39:13;;;;;;;5.83;4.50;;;25.70;99.90;;;;;;5047573;28;20817;-71
2023/08/22 11:41:39;;;;;;;9.30;5.20;;;25.70;99.90;;;;;;5047468;28;20474;-71
2023/08/22 11:44:12;;;;;;;7.20;5.50;;;25.70;99.90;;;;;;5047744;28;20412;-71
2023/08/22 11:46:40;;;;;;;8.67;6.00;;;25.70;99.90;;;;;;5047023;28;20404;-71
2023/08/22 11:49:09;;;;;;;9.80;5.80;;;25.70;99.90;;;;;;5044118;28;20565;-71
2023/08/22 11:51:35;;;;;;;7.23;5.67;;;25.80;99.90;;;;;;5048449;28;20522;-71
2023/08/22 11:54:00;;;;;;;7.83;5.57;;;25.70;99.90;;;;;;5051108;28;20504;-72
2023/08/22 11:56:26;;;;;;;7.73;6.00;;;25.60;99.90;;;;;;5049281;28;20180;-71
2023/08/22 11:58:52;;;;;;;10.27;5.63;;;25.50;99.90;;;;;;5056040;28;20250;-71
2023/08/22 12:01:23;;;;;;;7.17;5.93;;;25.60;99.90;;;;;;5052783;28;20182;-72
2023/08/22 12:03:49;;;;;;;9.23;5.93;;;25.60;99.90;;;;;;5050051;28;20420;-71
2023/08/22 12:06:15;;;;;;;9.07;5.57;;;25.70;99.90;;;;;;5048951;28;20423;-72
2023/08/22 12:08:41;;;;;;;10.27;5.27;;;25.70;99.90;;;;;;5048992;28;20456;-71
2023/08/22 12:11:21;;;;;;;8.67;5.90;;;25.70;99.90;;;;;;5049916;28;20420;-71
2023/08/22 12:13:47;;;;;;;11.03;4.90;;;25.70;99.90;;;;;;5050874;28;20415;-71
2023/08/22 12:16:12;;;;;;;7.20;4.87;;;25.70;99.90;;;;;;5050021;28;20416;-72
2023/08/22 12:18:39;;;;;;;7.00;5.13;;;25.70;99.90;;;;;;5050553;28;20209;-71
2023/08/22 12:21:05;;;;;;;5.30;4.80;;;25.70;99.90;;;;;;5050695;28;20264;-71
2023/08/22 12:23:30;;;;;;;8.43;5.57;;;25.80;99.90;;;;;;5049535;28;20510;-72
2023/08/22 12:25:56;;;;;;;6.57;5.23;;;25.90;99.90;;;;;;5049392;28;20219;-71
2023/08/22 12:28:24;;;;;;;5.90;5.27;;;26.00;99.90;;;;;;5049905;28;20280;-71
2023/08/22 12:30:49;;;;;;;8.23;6.37;;;26.10;99.90;;;;;;5049573;28;20198;-71
2023/08/22 12:33:15;;;;;;;6.13;5.37;;;26.30;99.90;;;;;;5050843;28;20444;-71
2023/08/22 12:35:41;;;;;;;7.97;5.13;;;26.40;99.90;;;;;;5050444;28;20177;-72
2023/08/22 12:38:07;;;;;;;6.33;5.50;;;26.40;99.90;;;;;;5050080;28;20251;-71
2023/08/22 12:40:33;;;;;;;5.13;4.57;;;26.60;99.90;;;;;;5049163;28;20424;-71
2023/08/22 12:42:59;;;;;;;6.30;4.10;;;26.50;99.90;;;;;;5050718;28;20189;-72